createdAt,value
2023-02-25T00:02:10.435Z,99428.81
2023-02-25T00:07:11.637Z,99424.69
2023-02-25T00:12:12.900Z,99423.13
2023-02-25T00:17:14.123Z,99425.47
2023-02-25T00:22:15.285Z,99431.69
2023-02-25T00:27:16.472Z,99428.06
2023-02-25T00:32:17.900Z,99424.72
2023-02-25T00:37:19.236Z,99421.84
2023-02-25T00:42:20.575Z,99429.94
2023-02-25T00:47:21.777Z,99426.28
2023-02-25T00:52:23.042Z,99427.06
2023-02-25T00:57:24.253Z,99424.19
2023-02-25T01:02:25.506Z,99415.13
2023-02-25T01:07:26.692Z,99421.38
2023-02-25T01:12:27.815Z,99419.03
2023-02-25T01:17:28.992Z,99428.38
2023-02-25T01:22:30.133Z,99430.22
2023-02-25T01:27:31.315Z,99420.59
2023-02-25T01:32:32.919Z,99436.19
2023-02-25T01:37:34.227Z,99425.78
2023-02-25T01:42:35.402Z,99432.00
2023-02-25T01:47:36.591Z,99428.16
2023-02-25T01:52:37.819Z,99434.38
2023-02-25T01:57:38.995Z,99431.00
2023-02-25T02:02:40.377Z,99434.63
2023-02-25T02:07:41.639Z,99432.03
2023-02-25T02:12:43.082Z,99434.63
2023-02-25T02:17:44.269Z,99433.84
2023-02-25T02:22:45.481Z,99435.69
2023-02-25T02:27:46.698Z,99423.47
2023-02-25T02:32:47.990Z,99430.22
2023-02-25T02:37:49.216Z,99437.75
2023-02-25T02:42:50.589Z,99434.13
2023-02-25T02:47:51.797Z,99437.75
2023-02-25T02:52:53.300Z,99430.50
2023-02-25T02:57:54.462Z,99431.53
2023-02-25T03:02:55.615Z,99432.56
2023-02-25T03:07:56.815Z,99437.25
2023-02-25T03:12:58.034Z,99446.09
2023-02-25T03:17:59.235Z,99438.81
2023-02-25T03:23:00.456Z,99431.03
2023-02-25T03:28:01.656Z,99439.34
2023-02-25T03:33:02.848Z,99435.16
2023-02-25T03:38:03.999Z,99444.25
2023-02-25T03:43:08.380Z,99448.69
2023-02-25T03:48:09.731Z,99447.38
2023-02-25T03:53:10.980Z,99443.47
2023-02-25T03:58:12.366Z,99449.22
2023-02-25T04:03:13.565Z,99447.38
2023-02-25T04:08:18.069Z,99455.94
2023-02-25T04:13:20.827Z,99453.84
2023-02-25T04:18:26.485Z,99461.66
2023-02-25T04:23:27.685Z,99474.38
2023-02-25T04:28:28.932Z,99481.38
2023-02-25T04:33:30.072Z,99472.03
2023-02-25T04:38:31.230Z,99482.94
2023-02-25T04:43:32.481Z,99485.00
2023-02-25T04:48:33.665Z,99479.53
2023-02-25T04:53:34.793Z,99475.41
2023-02-25T04:58:35.980Z,99476.94
2023-02-25T05:03:37.110Z,99466.56
2023-02-25T05:08:38.341Z,99480.88
2023-02-25T05:13:39.505Z,99481.38
2023-02-25T05:18:40.689Z,99480.09
2023-02-25T05:23:41.937Z,99475.16
2023-02-25T05:28:45.886Z,99475.66
2023-02-25T05:33:47.031Z,99471.25
2023-02-25T05:38:48.188Z,99470.47
2023-02-25T05:43:49.378Z,99465.81
2023-02-25T05:48:50.557Z,99481.13
2023-02-25T05:53:51.735Z,99479.03
2023-02-25T05:58:52.990Z,99472.03
2023-02-25T06:03:58.270Z,99478.53
2023-02-25T06:08:59.491Z,99488.66
2023-02-25T06:14:00.748Z,99496.94
2023-02-25T06:19:02.186Z,99497.47
2023-02-25T06:24:05.558Z,99496.94
2023-02-25T06:29:06.872Z,99500.84
2023-02-25T06:34:08.053Z,99501.38
2023-02-25T06:39:09.679Z,99509.66
2023-02-25T06:44:10.841Z,99517.72
2023-02-25T06:49:12.430Z,99514.09
2023-02-25T06:54:13.578Z,99526.53
2023-02-25T06:59:14.788Z,99532.25
2023-02-25T07:04:16.021Z,99537.44
2023-02-25T07:09:17.298Z,99541.06
2023-02-25T07:14:18.470Z,99541.56
2023-02-25T07:19:19.673Z,99552.50
2023-02-25T07:24:20.893Z,99556.63
2023-02-25T07:29:22.051Z,99562.06
2023-02-25T07:34:23.257Z,99552.50
2023-02-25T07:39:24.441Z,99558.97
2023-02-25T07:44:25.690Z,99551.69
2023-02-25T07:49:26.837Z,99560.25
2023-02-25T07:54:28.253Z,99572.72
2023-02-25T07:59:29.556Z,99571.41
2023-02-25T08:04:30.847Z,99577.91
2023-02-25T08:09:32.055Z,99575.81
2023-02-25T08:14:33.257Z,99572.16
2023-02-25T08:19:34.518Z,99557.06
2023-02-25T08:24:36.942Z,99566.91
2023-02-25T08:29:38.161Z,99563.78
2023-02-25T08:34:39.378Z,99556.31
2023-02-25T08:39:40.594Z,99572.72
2023-02-25T08:44:41.808Z,99574.28
2023-02-25T08:49:42.963Z,99583.91
2023-02-25T08:54:44.122Z,99587.00
2023-02-25T08:59:45.338Z,99589.59
2023-02-25T09:04:46.587Z,99584.41
2023-02-25T09:09:47.772Z,99582.81
2023-02-25T09:14:50.231Z,99586.69
2023-02-25T09:19:51.584Z,99586.66
2023-02-25T09:24:52.746Z,99603.84
2023-02-25T09:29:53.992Z,99620.75
2023-02-25T09:34:55.285Z,99615.53
2023-02-25T09:39:57.577Z,99620.47
2023-02-25T09:44:58.792Z,99627.97
2023-02-25T09:49:59.962Z,99627.41
2023-02-25T09:55:03.539Z,99628.38
2023-02-25T10:00:12.694Z,99641.44
2023-02-25T10:05:14.855Z,99649.28
2023-02-25T10:10:16.084Z,99662.97
2023-02-25T10:15:18.799Z,99648.19
2023-02-25T10:20:20.070Z,99651.81
2023-02-25T10:25:21.284Z,99659.28
2023-02-25T10:30:22.512Z,99667.88
2023-02-25T10:35:23.711Z,99666.44
2023-02-25T10:40:24.902Z,99663.81
2023-02-25T10:45:26.162Z,99675.81
2023-02-25T10:50:42.925Z,99699.22
2023-02-25T10:55:51.525Z,99698.13
2023-02-25T11:00:53.834Z,99720.22
2023-02-25T11:05:55.063Z,99728.84
2023-02-25T11:10:56.209Z,99731.19
2023-02-25T11:15:57.403Z,99733.25
2023-02-25T11:20:58.664Z,99740.25
2023-02-25T11:25:59.834Z,99736.28
2023-02-25T11:31:01.045Z,99734.84
2023-02-25T11:36:02.306Z,99718.50
2023-02-25T11:41:03.530Z,99719.13
2023-02-25T11:46:04.734Z,99717.44
2023-02-25T11:51:06.304Z,99708.69
2023-02-25T11:56:07.520Z,99721.16
2023-02-25T12:01:09.762Z,99716.34
2023-02-25T12:06:11.681Z,99719.72
2023-02-25T12:11:12.904Z,99707.53
2023-02-25T12:16:14.085Z,99716.84
2023-02-25T12:21:15.344Z,99724.34
2023-02-25T12:26:16.551Z,99721.38
2023-02-25T12:31:17.762Z,99731.88
2023-02-25T12:36:18.909Z,99728.50
2023-02-25T12:41:20.123Z,99722.28
2023-02-25T12:46:22.144Z,99723.16
2023-02-25T12:51:23.647Z,99716.13
2023-02-25T12:56:25.059Z,99729.19
2023-02-25T13:01:28.457Z,99736.84
2023-02-25T13:06:29.677Z,99749.34
2023-02-25T13:11:31.323Z,99741.56
2023-02-25T13:16:33.564Z,99735.31
2023-02-25T13:21:34.813Z,99750.38
2023-02-25T13:26:35.993Z,99747.22
2023-02-25T13:31:37.240Z,99746.72
2023-02-25T13:36:38.546Z,99738.13
2023-02-25T13:41:39.847Z,99745.63
2023-02-25T13:46:40.991Z,99754.91
2023-02-25T13:51:42.265Z,99755.06
2023-02-25T13:56:43.734Z,99747.78
2023-02-25T14:01:45.007Z,99762.25
2023-02-25T14:06:47.278Z,99755.31
2023-02-25T14:11:48.608Z,99760.84
2023-02-25T14:16:51.487Z,99766.53
2023-02-25T14:21:53.533Z,99772.31
2023-02-25T14:26:54.746Z,99779.28
2023-02-25T14:31:56.001Z,99789.50
2023-02-25T14:36:57.257Z,99777.69
2023-02-25T14:41:58.460Z,99786.53
2023-02-25T14:46:59.621Z,99801.59
2023-02-25T14:52:00.785Z,99793.72
2023-02-25T14:57:02.013Z,99800.03
2023-02-25T15:02:03.229Z,99820.91
2023-02-25T15:07:04.409Z,99826.44
2023-02-25T15:12:05.905Z,99826.41
2023-02-25T15:17:07.120Z,99830.81
2023-02-25T15:22:08.344Z,99823.22
2023-02-25T15:27:09.537Z,99828.72
2023-02-25T15:32:10.943Z,99822.50
2023-02-25T15:37:12.182Z,99846.47
2023-02-25T15:42:13.411Z,99852.22
2023-02-25T15:47:14.610Z,99873.28
2023-02-25T15:52:15.753Z,99875.88
2023-02-25T15:57:16.904Z,99880.88
2023-02-25T16:02:18.164Z,99883.78
2023-02-25T16:07:19.430Z,99902.25
2023-02-25T16:12:20.694Z,99895.53
2023-02-25T16:17:21.863Z,99916.06
2023-02-25T16:22:23.083Z,99922.06
2023-02-25T16:27:24.258Z,99937.41
2023-02-25T16:32:25.521Z,99941.78
2023-02-25T16:37:26.740Z,99948.28
2023-02-25T16:42:27.996Z,99949.81
2023-02-25T16:47:29.214Z,99963.03
2023-02-25T16:52:30.481Z,99975.50
2023-02-25T16:57:33.770Z,99982.19
2023-02-25T17:02:34.961Z,99998.81
2023-02-25T17:07:36.145Z,99941.31
2023-02-25T17:12:37.330Z,100011.09
2023-02-25T17:17:38.654Z,100016.50
2023-02-25T17:22:40.055Z,100023.19
2023-02-25T17:27:41.459Z,100032.44
2023-02-25T17:32:45.029Z,100027.00
2023-02-25T17:37:46.264Z,100049.03
2023-02-25T17:42:47.522Z,100049.97
2023-02-25T17:47:48.694Z,100053.50
2023-02-25T17:52:49.940Z,100059.03
2023-02-25T17:57:51.125Z,100073.19
2023-02-25T18:02:52.369Z,100088.66
2023-02-25T18:07:54.369Z,100090.91
2023-02-25T18:12:55.788Z,100089.97
2023-02-25T18:17:56.985Z,100101.81
2023-02-25T18:22:59.982Z,100096.50
2023-02-25T18:28:01.137Z,100106.94
2023-02-25T18:33:02.312Z,100115.47
2023-02-25T18:38:03.650Z,100123.50
2023-02-25T18:43:04.794Z,100134.84
2023-02-25T18:48:05.994Z,100128.47
2023-02-25T18:53:07.247Z,100141.91
2023-02-25T18:58:08.452Z,100135.16
2023-02-25T19:03:11.461Z,100142.38
2023-02-25T19:08:13.081Z,100168.94
2023-02-25T19:13:14.266Z,100165.75
2023-02-25T19:18:15.548Z,100167.75
2023-02-25T19:23:16.879Z,100171.78
2023-02-25T19:28:18.103Z,100176.31
2023-02-25T19:33:19.392Z,100181.97
2023-02-25T19:38:20.545Z,100194.03
2023-02-25T19:43:21.786Z,100193.75
2023-02-25T19:48:23.043Z,100195.78
2023-02-25T19:53:24.273Z,100209.50
2023-02-25T19:58:25.554Z,100216.94
2023-02-25T20:03:26.811Z,100219.22
2023-02-25T20:08:28.035Z,100226.81
2023-02-25T20:13:29.262Z,100232.97
2023-02-25T20:18:30.421Z,100231.81
2023-02-25T20:23:31.607Z,100233.16
2023-02-25T20:28:32.839Z,100240.50
2023-02-25T20:33:34.037Z,100251.22
2023-02-25T20:38:35.215Z,100262.84
2023-02-25T20:43:36.419Z,100260.28
2023-02-25T20:48:37.563Z,100272.56
2023-02-25T20:53:38.812Z,100284.78
2023-02-25T20:58:40.783Z,100283.47
2023-02-25T21:03:41.985Z,100287.63
2023-02-25T21:08:43.160Z,100290.84
2023-02-25T21:13:46.851Z,100294.63
2023-02-25T21:18:47.984Z,100299.13
2023-02-25T21:23:52.499Z,100305.81
2023-02-25T21:28:53.728Z,100307.72
2023-02-25T21:33:54.898Z,100316.72
2023-02-25T21:38:56.127Z,100314.53
2023-02-25T21:43:57.864Z,100306.97
2023-02-25T21:48:59.424Z,100310.06
2023-02-25T21:54:00.685Z,100313.31
2023-02-25T21:59:01.832Z,100320.03
2023-02-25T22:04:03.034Z,100316.97
2023-02-25T22:09:04.416Z,100321.78
2023-02-25T22:14:05.651Z,100321.06
2023-02-25T22:19:06.989Z,100318.69
2023-02-25T22:24:08.248Z,100321.63
2023-02-25T22:29:09.513Z,100319.34
2023-02-25T22:34:10.769Z,100336.75
2023-02-25T22:39:11.952Z,100332.94
2023-02-25T22:44:13.144Z,100345.06
2023-02-25T22:49:14.290Z,100347.44
2023-02-25T22:54:15.494Z,100350.00
2023-02-25T22:59:17.425Z,100356.91
2023-02-25T23:04:18.565Z,100359.91
2023-02-25T23:09:19.690Z,100360.31
2023-02-25T23:14:20.932Z,100359.75
2023-02-25T23:19:22.107Z,100363.19
2023-02-25T23:24:23.324Z,100366.41
2023-02-25T23:29:24.513Z,100370.78
2023-02-25T23:34:25.847Z,100368.19
2023-02-25T23:39:27.766Z,100356.16
2023-02-25T23:44:29.006Z,100372.06
2023-02-25T23:49:30.193Z,100379.56
2023-02-25T23:54:31.401Z,100386.63
2023-02-25T23:59:32.592Z,100382.56
